CheckWX is a tool to help pilots better visualize weather data.  It is not intended as a substitute for an official pre-flight weather briefing.

16:37:44 UTC

KCEF METAR
Westover ARB / Metropolitan Airport
Springfield/Chicopee, Massachusetts, USA
Current

42 mins ago

KCEF 051556Z 17006KT 10SM FEW023 OVC050 12/05 A3002 RMK AO2A SLP172 T01230052
Observed
Apr-5 @ 15:56 UTC
Wind
  • 170° at 6 KTS
Visibility
Flight Rules
VFR
Cloud Levels
  • Few at 2,300' AGL
  • Overcast at 5,000' AGL
Temperature
12°C / 54°F
Dewpoint
C / 41°F
Humidity
63%
Altimeter
30.02" Hg
Pressure
1016.62 hPa
Previous

2 hours ago

KCEF 051456Z 22006KT 10SM OVC049 11/05 A3004 RMK AO2A SLP179 T01120049 58001
Observed
Apr-5 @ 14:56 UTC
Wind
  • 220° at 6 KTS
Visibility
Flight Rules
VFR
Cloud Levels
  • Overcast at 4,900' AGL
Temperature
11°C / 52°F
Dewpoint
C / 41°F
Humidity
67%
Altimeter
30.04" Hg
Pressure
1017.32 hPa
Previous

3 hours ago

KCEF 051356Z 23003KT 10SM BKN050 10/05 A3004 RMK AO2A SLP179 T01000046
Observed
Apr-5 @ 13:56 UTC
Wind
  • 230° at 3 KTS
Visibility
Flight Rules
VFR
Cloud Levels
  • Broken at 5,000' AGL
Temperature
10°C / 50°F
Dewpoint
C / 41°F
Humidity
71%
Altimeter
30.04" Hg
Pressure
1017.32 hPa